Nearby METAR Reports

 

KDWH - Houston/Dw Hooks, Texas, USA
Distance from station: WNW 3mi, 6km
Updated: 07/23/2021 7:53pm
Clear
Clear
 Wind from SSW
Wind: SSW 8 mph , 13 km/h
Temperature: 90°F , 32°C
Heat Index: 97°F , 36°C
Dew Point: 72°F , 22°C
Humidity: 55%
Barometer: 30.04 inHg , 1017.3 hPa
Clouds: Clear
Visibility: 10 miles , 16 km
2021/07/24 00:53 KDWH 240053Z 20007KT 10SM CLR 32/22 A3004 RMK AO2 SLP168 T03170217
KIAH - Houston/Intnl, Texas, USA
Distance from station: ESE 9mi, 14km
Updated: 07/23/2021 7:53pm
Few Clouds
Few Clouds
 Wind from S
Wind: S 7 mph , 11 km/h
Temperature: 90°F , 32°C
Heat Index: 97°F , 36°C
Dew Point: 72°F , 22°C
Humidity: 55%
Barometer: 30.03 inHg , 1016.9 hPa
Clouds: Few Clouds
Visibility: 10 miles , 16 km
Cloud details: Few Clouds 5000 ft
2021/07/24 00:53 KIAH 240053Z 19006KT 10SM FEW050 32/22 A3003 RMK AO2 SLP168 T03220222
 
KCXO - Conroe, Texas, USA
Distance from station: NNE 21mi, 34km
Updated: 07/23/2021 7:53pm
Clear
Clear
 Wind from SSW
Wind: SSW 8 mph , 13 km/h
Temperature: 90°F , 32°C
Heat Index: 97°F , 36°C
Dew Point: 72°F , 22°C
Humidity: 55%
Barometer: 30.04 inHg , 1017.3 hPa
Clouds: Clear
Visibility: 10 miles , 16 km
2021/07/24 00:53 KCXO 240053Z 21007KT 10SM CLR 32/22 A3004 RMK AO2 SLP169 T03220222
KMCJ - Houston/Univ, Texas, USA
Distance from station: SSE 24mi, 39km
Updated: 07/23/2021 7:55pm
Clear
Clear
 Wind from S
Wind: S 9 mph , 15 km/h, Gust: 15 mph , 24 km/h
Temperature: 88°F , 31°C
Heat Index: 96°F , 36°C
Dew Point: 73°F , 23°C
Humidity: 62%
Barometer: 30.04 inHg , 1017.3 hPa
Clouds: Clear
Visibility: 10 miles , 16 km
2021/07/24 00:55 KMCJ 240055Z AUTO 19008G13KT 160V230 10SM CLR 31/23 A3004 RMK A01
 
KTME - Houston Exec, Texas, USA
Distance from station: SW 30mi, 48km
Updated: 07/23/2021 7:55pm
Clear
Clear
 Wind from S
Wind: S 12 mph , 19 km/h
Temperature: 88°F , 31°C
Heat Index: 98°F , 37°C
Dew Point: 75°F , 24°C
Humidity: 66%
Barometer: 30.05 inHg , 1017.6 hPa
Clouds: Clear
Visibility: 7 miles , 11 km
2021/07/24 00:55 KTME 240055Z AUTO 19010KT 7SM CLR 31/24 A3005 RMK AO2
KHOU - Houston/Hobby, Texas, USA
Distance from station: SSE 32mi, 51km
Updated: 07/23/2021 7:53pm
Clear
Clear
 Wind from S
Wind: S 13 mph , 20 km/h
Temperature: 90°F , 32°C
Heat Index: 99°F , 37°C
Dew Point: 73°F , 23°C
Humidity: 59%
Barometer: 30.04 inHg , 1017.3 hPa
Clouds: Clear
Visibility: 10 miles , 16 km
2021/07/24 00:53 KHOU 240053Z 19011KT 10SM CLR 32/23 A3004 RMK AO2 SLP177 T03170228
 
KSGR - Houston/Sugar La, Texas, USA
Distance from station: SSW 32mi, 51km
Updated: 07/23/2021 7:53pm
Clear
Clear
 Wind from S
Wind: S 10 mph , 17 km/h
Temperature: 88°F , 31°C
Heat Index: 96°F , 36°C
Dew Point: 73°F , 23°C
Humidity: 62%
Barometer: 30.04 inHg , 1017.3 hPa
Clouds: Clear
Visibility: 10 miles , 16 km
2021/07/24 00:53 KSGR 240053Z 18009KT 10SM CLR 31/23 A3004 RMK AO2 SLP172 T03110233
K6R3 - Cleveland Muni, Texas, USA
Distance from station: NE 36mi, 58km
Updated: 07/23/2021 7:55pm
Clear
Clear
 Wind from SSE
Wind: SSE 3 mph , 6 km/h
Temperature: 86°F , 30°C
Heat Index: 99°F , 37°C
Dew Point: 79°F , 26°C
Humidity: 79%
Barometer: 30.04 inHg , 1017.3 hPa
Clouds: Clear
Visibility: 7 miles , 11 km
2021/07/24 00:55 K6R3 240055Z AUTO 16003KT 7SM CLR 30/26 A3004 RMK AO2 T03030263
 
KAXH - Houston/Southwst, Texas, USA
Distance from station: S 37mi, 60km
Updated: 07/23/2021 7:55pm
Clear
Clear
 Wind from S
Wind: S 3 mph , 6 km/h
Temperature: 86°F , 30°C
Heat Index: 95°F , 35°C
Dew Point: 75°F , 24°C
Humidity: 70%
Barometer: 30.06 inHg , 1017.9 hPa
Clouds: Clear
Visibility: 10 miles , 16 km
2021/07/24 00:55 KAXH 240055Z AUTO 19003KT 10SM CLR 30/24 A3006 RMK AO2 T02990238
KEFD - Houston/Ellingto, Texas, USA
Distance from station: SSE 37mi, 60km
Updated: 07/23/2021 7:50pm
Clear
Clear
 Wind from S
Wind: S 9 mph , 15 km/h
Temperature: 88°F , 31°C
Heat Index: 96°F , 36°C
Dew Point: 73°F , 23°C
Humidity: 62%
Barometer: 30.04 inHg , 1017.3 hPa
Clouds: Clear
Visibility: 10 miles , 16 km
2021/07/24 00:50 KEFD 240050Z 19008KT 10SM CLR 31/23 A3004
 
KLVJ - Houston, Texas, USA
Distance from station: SSE 40mi, 64km
Updated: 07/23/2021 7:53pm
Clear
Clear
 Wind from S
Wind: S 8 mph , 13 km/h
Temperature: 88°F , 31°C
Heat Index: 96°F , 36°C
Dew Point: 73°F , 23°C
Humidity: 62%
Barometer: 30.06 inHg , 1017.9 hPa
Clouds: Clear
Visibility: 10 miles , 16 km
2021/07/24 00:53 KLVJ 240053Z AUTO 19007KT 10SM CLR 31/23 A3006 RMK AO2 SLP180 T03110233
KUTS - Huntsville, Texas, USA
Distance from station: N 48mi, 78km
Updated: 07/23/2021 7:53pm
Clear
Clear
 Wind from S
Wind: S 6 mph , 9 km/h
Temperature: 91°F , 33°C
Heat Index: 98°F , 37°C
Dew Point: 72°F , 22°C
Humidity: 52%
Barometer: 30.04 inHg , 1017.3 hPa
Clouds: Clear
Visibility: 10 miles , 16 km
2021/07/24 00:53 KUTS 240053Z AUTO 19005KT 10SM CLR 33/22 A3004 RMK AO2 SLP165 T03280222